createdAt,value
2022-10-09T00:01:32.195Z,17.07
2022-10-09T00:16:34.096Z,16.84
2022-10-09T00:31:36.083Z,16.71
2022-10-09T00:46:56.046Z,16.69
2022-10-09T01:01:58.193Z,16.70
2022-10-09T01:17:14.140Z,16.64
2022-10-09T01:32:21.549Z,16.62
2022-10-09T01:47:24.022Z,16.43
2022-10-09T02:02:26.671Z,16.33
2022-10-09T02:17:35.142Z,16.27
2022-10-09T02:32:37.285Z,16.24
2022-10-09T02:47:39.118Z,16.30
2022-10-09T03:02:41.083Z,16.27
2022-10-09T03:17:42.950Z,16.19
2022-10-09T03:32:44.912Z,16.21
2022-10-09T03:47:46.688Z,16.33
2022-10-09T04:02:48.937Z,16.36
2022-10-09T04:17:50.940Z,16.38
2022-10-09T04:32:52.808Z,16.53
2022-10-09T04:47:54.613Z,17.04
2022-10-09T05:02:56.389Z,17.71
2022-10-09T05:17:58.173Z,18.51
2022-10-09T05:33:00.240Z,18.44
2022-10-09T05:48:02.048Z,19.81
2022-10-09T06:03:04.182Z,20.87
2022-10-09T06:18:06.125Z,21.73
2022-10-09T06:33:08.012Z,22.21
2022-10-09T06:48:09.826Z,21.54
2022-10-09T07:03:11.647Z,23.21
2022-10-09T07:18:13.508Z,25.08
2022-10-09T07:33:15.455Z,25.70
2022-10-09T07:48:17.222Z,25.83
2022-10-09T08:03:19.016Z,27.02
2022-10-09T08:18:20.825Z,27.58
2022-10-09T08:33:25.241Z,28.00
2022-10-09T08:48:30.443Z,28.40
2022-10-09T09:03:59.561Z,28.51
2022-10-09T09:19:07.273Z,27.78
2022-10-09T09:34:28.246Z,26.62
2022-10-09T09:49:30.197Z,25.95
2022-10-09T10:04:32.782Z,25.06
2022-10-09T10:19:35.649Z,24.71
2022-10-09T10:34:45.742Z,23.84
2022-10-09T10:49:47.610Z,23.52
2022-10-09T11:05:29.751Z,24.23
2022-10-09T11:21:04.350Z,24.39
2022-10-09T11:36:21.708Z,24.28
2022-10-09T11:51:47.948Z,24.25
2022-10-09T12:06:57.527Z,23.96
2022-10-09T12:22:17.480Z,23.39
2022-10-09T12:37:31.324Z,23.31
2022-10-09T12:52:33.494Z,23.31
2022-10-09T13:07:35.481Z,23.25
2022-10-09T13:22:37.359Z,22.94
2022-10-09T13:37:41.179Z,22.74
2022-10-09T13:52:42.944Z,22.27
2022-10-09T14:07:44.759Z,22.03
2022-10-09T14:22:46.841Z,21.91
2022-10-09T14:37:49.443Z,21.80
2022-10-09T14:52:51.605Z,21.78
2022-10-09T15:07:53.748Z,21.79
2022-10-09T15:22:55.528Z,21.63
2022-10-09T15:37:57.457Z,21.57
2022-10-09T15:53:00.026Z,21.55
2022-10-09T16:08:01.842Z,21.53
2022-10-09T16:23:04.618Z,21.26
2022-10-09T16:38:06.959Z,21.22
2022-10-09T16:53:09.198Z,21.15
2022-10-09T17:08:10.974Z,20.89
2022-10-09T17:23:12.795Z,20.80
2022-10-09T17:38:14.679Z,20.64
2022-10-09T17:53:16.505Z,20.52
2022-10-09T18:08:19.871Z,20.46
2022-10-09T18:23:22.805Z,20.32
2022-10-09T18:38:25.057Z,20.18
2022-10-09T18:53:27.158Z,20.07
2022-10-09T19:08:29.036Z,19.87
2022-10-09T19:23:30.899Z,19.68
2022-10-09T19:38:33.386Z,19.52
2022-10-09T19:53:35.859Z,19.52
2022-10-09T20:08:39.903Z,19.47
2022-10-09T20:23:43.283Z,19.20
2022-10-09T20:38:45.245Z,18.99
2022-10-09T20:53:51.295Z,18.74
2022-10-09T21:08:53.111Z,18.59
2022-10-09T21:23:56.682Z,18.41
2022-10-09T21:38:58.750Z,18.15
2022-10-09T21:54:00.663Z,18.12
2022-10-09T22:09:02.484Z,18.01
2022-10-09T22:24:04.311Z,17.97
2022-10-09T22:39:07.297Z,17.79
2022-10-09T22:54:10.617Z,17.49
2022-10-09T23:09:14.665Z,17.39
2022-10-09T23:24:17.993Z,17.14
2022-10-09T23:39:20.147Z,16.94
2022-10-09T23:54:22.044Z,16.82
